createdAt,value
2018-11-12T00:00:25.624Z,83679.00
2018-11-12T00:05:29.664Z,83690.00
2018-11-12T00:10:33.783Z,83706.00
2018-11-12T00:15:37.871Z,83702.00
2018-11-12T00:20:41.967Z,83703.00
2018-11-12T00:25:46.102Z,83700.00
2018-11-12T00:30:49.942Z,83686.00
2018-11-12T00:35:53.797Z,83693.00
2018-11-12T00:40:57.898Z,83702.00
2018-11-12T00:46:02.020Z,83709.00
2018-11-12T00:51:06.115Z,83709.00
2018-11-12T00:56:09.966Z,83702.00
2018-11-12T01:01:13.819Z,83707.00
2018-11-12T01:06:17.941Z,83693.00
2018-11-12T01:11:21.816Z,83700.00
2018-11-12T01:16:25.725Z,83696.00
2018-11-12T01:21:29.642Z,83687.00
2018-11-12T01:26:33.491Z,83690.00
2018-11-12T01:31:37.415Z,83688.00
2018-11-12T01:36:41.517Z,83672.00
2018-11-12T01:41:45.401Z,83667.00
2018-11-12T01:46:49.580Z,83665.00
2018-11-12T01:51:53.462Z,83666.00
2018-11-12T01:56:57.558Z,83669.00
2018-11-12T02:02:02.014Z,83663.00
2018-11-12T02:07:06.811Z,83655.00
2018-11-12T02:12:10.654Z,83655.00
2018-11-12T02:17:14.499Z,83659.00
2018-11-12T02:22:18.353Z,83652.00
2018-11-12T02:27:22.219Z,83653.00
2018-11-12T02:32:26.061Z,83655.00
2018-11-12T02:37:29.906Z,83650.00
2018-11-12T02:42:33.745Z,83649.00
2018-11-12T02:47:37.999Z,83657.00
2018-11-12T02:52:42.234Z,83648.00
2018-11-12T02:57:46.681Z,83640.00
2018-11-12T03:02:50.989Z,83646.00
2018-11-12T03:07:54.840Z,83640.00
2018-11-12T03:12:58.711Z,83642.00
2018-11-12T03:18:02.586Z,83638.00
2018-11-12T03:23:06.692Z,83642.00
2018-11-12T03:28:10.778Z,83635.00
2018-11-12T03:33:14.608Z,83638.00
2018-11-12T03:38:18.463Z,83641.00
2018-11-12T03:43:22.606Z,83638.00
2018-11-12T03:48:26.458Z,83635.00
2018-11-12T03:53:30.301Z,83637.00
2018-11-12T03:58:34.145Z,83650.00
2018-11-12T04:03:38.234Z,83646.00
2018-11-12T04:08:42.133Z,83650.00
2018-11-12T04:13:45.994Z,83642.00
2018-11-12T04:18:49.809Z,83638.00
2018-11-12T04:23:53.624Z,83631.00
2018-11-12T04:28:57.465Z,83628.00
2018-11-12T04:34:01.386Z,83629.00
2018-11-12T04:39:07.933Z,83628.00
2018-11-12T04:44:11.983Z,83633.00
2018-11-12T04:49:15.825Z,83634.00
2018-11-12T04:54:19.874Z,83633.00
2018-11-12T04:59:23.975Z,83633.00
2018-11-12T05:04:27.829Z,83634.00
2018-11-12T05:09:31.702Z,83634.00
2018-11-12T05:14:35.746Z,83635.00
2018-11-12T05:19:39.600Z,83633.00
2018-11-12T05:24:43.606Z,83643.00
2018-11-12T05:29:47.466Z,83648.00
2018-11-12T05:34:51.298Z,83652.00
2018-11-12T05:39:55.133Z,83642.00
2018-11-12T05:44:59.260Z,83637.00
2018-11-12T05:50:03.376Z,83640.00
2018-11-12T05:55:08.993Z,83640.00
2018-11-12T06:00:14.205Z,83646.00
2018-11-12T06:05:18.361Z,83649.00
2018-11-12T06:10:23.745Z,83652.00
2018-11-12T06:15:27.619Z,83657.00
2018-11-12T06:20:32.554Z,83659.00
2018-11-12T06:25:36.718Z,83661.00
2018-11-12T06:30:40.766Z,83660.00
2018-11-12T06:35:44.642Z,83666.00
2018-11-12T06:40:48.485Z,83663.00
2018-11-12T06:45:52.927Z,83656.00
2018-11-12T06:50:56.994Z,83655.00
2018-11-12T06:56:01.088Z,83654.00
2018-11-12T07:01:05.088Z,83651.00
2018-11-12T07:06:09.150Z,83662.00
2018-11-12T07:11:12.986Z,83668.00
2018-11-12T07:16:16.833Z,83669.00
2018-11-12T07:21:20.987Z,83675.00
2018-11-12T07:26:24.830Z,83685.00
2018-11-12T07:31:29.374Z,83705.00
2018-11-12T07:36:33.219Z,83722.00
2018-11-12T07:41:37.148Z,83738.00
2018-11-12T07:46:41.251Z,83773.00
2018-11-12T07:51:45.106Z,83801.00
2018-11-12T07:56:48.938Z,83840.00
2018-11-12T08:01:52.834Z,83915.00
2018-11-12T08:06:56.934Z,84006.00
2018-11-12T08:12:00.907Z,84069.00
2018-11-12T08:17:04.790Z,84092.00
2018-11-12T08:22:08.620Z,84101.00
2018-11-12T08:27:12.776Z,84130.00
2018-11-12T08:32:16.666Z,84160.00
2018-11-12T08:37:20.547Z,84158.00
2018-11-12T08:42:24.386Z,84164.00
2018-11-12T08:47:28.838Z,84145.00
2018-11-12T08:52:32.950Z,84139.00
2018-11-12T08:57:37.135Z,84125.00
2018-11-12T09:02:41.199Z,84143.00
2018-11-12T09:07:46.546Z,84152.00
2018-11-12T09:12:50.379Z,84175.00
2018-11-12T09:17:54.218Z,84219.00
2018-11-12T09:22:58.272Z,84245.00
2018-11-12T09:28:02.167Z,84276.00
2018-11-12T09:33:06.138Z,84314.00
2018-11-12T09:38:10.000Z,84329.00
2018-11-12T09:43:14.007Z,84340.00
2018-11-12T09:48:17.870Z,84345.00
2018-11-12T09:53:21.685Z,84359.00
2018-11-12T09:58:25.605Z,84387.00
2018-11-12T10:03:30.682Z,84398.00
2018-11-12T10:08:36.639Z,84396.00
2018-11-12T10:13:43.052Z,84411.00
2018-11-12T10:18:42.927Z,84423.00
2018-11-12T10:23:46.765Z,84438.00
2018-11-12T10:28:50.693Z,84471.00
2018-11-12T10:33:54.598Z,84632.00
2018-11-12T10:38:58.388Z,84832.00
2018-11-12T10:44:02.259Z,84867.00
2018-11-12T10:49:06.174Z,84876.00
2018-11-12T10:54:10.503Z,84648.00
2018-11-12T10:59:14.358Z,84533.00
2018-11-12T11:04:21.573Z,84490.00
2018-11-12T11:09:25.442Z,84459.00
2018-11-12T11:14:29.530Z,84441.00
2018-11-12T11:19:33.367Z,84439.00
2018-11-12T11:24:37.206Z,84456.00
2018-11-12T11:29:41.025Z,84467.00
2018-11-12T11:34:44.855Z,84471.00
2018-11-12T11:39:48.899Z,84478.00
2018-11-12T11:44:52.721Z,84492.00
2018-11-12T11:49:56.553Z,84492.00
2018-11-12T11:55:00.393Z,84494.00
2018-11-12T12:00:07.452Z,84485.00
2018-11-12T12:05:12.692Z,84467.00
2018-11-12T12:10:16.918Z,84459.00
2018-11-12T12:15:21.865Z,84476.00
2018-11-12T12:20:26.617Z,84491.00
2018-11-12T12:25:30.548Z,84505.00
2018-11-12T12:30:34.532Z,84539.00
2018-11-12T12:35:38.404Z,84538.00
2018-11-12T12:40:42.230Z,84522.00
2018-11-12T12:45:46.482Z,84522.00
2018-11-12T12:50:50.419Z,84534.00
2018-11-12T12:55:54.727Z,84549.00
2018-11-12T13:00:58.335Z,84542.00
2018-11-12T13:06:02.162Z,84523.00
2018-11-12T13:11:06.322Z,84520.00
2018-11-12T13:16:10.398Z,84509.00
2018-11-12T13:21:14.540Z,84522.00
2018-11-12T13:26:18.360Z,84526.00
2018-11-12T13:31:22.514Z,84534.00
2018-11-12T13:36:26.328Z,84543.00
2018-11-12T13:41:30.371Z,84561.00
2018-11-12T13:46:39.552Z,84562.00
2018-11-12T13:51:50.206Z,84585.00
2018-11-12T13:56:54.030Z,84574.00
2018-11-12T14:01:58.078Z,84569.00
2018-11-12T14:07:02.179Z,84565.00
2018-11-12T14:12:06.598Z,84566.00
2018-11-12T14:17:10.422Z,84414.00
2018-11-12T14:22:14.228Z,84351.00
2018-11-12T14:27:18.125Z,84283.00
2018-11-12T14:32:22.191Z,84272.00
2018-11-12T14:37:26.014Z,84245.00
2018-11-12T14:42:29.854Z,84191.00
2018-11-12T14:47:33.694Z,84198.00
2018-11-12T14:52:37.669Z,84180.00
2018-11-12T14:57:41.542Z,84171.00
2018-11-12T15:02:45.646Z,84154.00
2018-11-12T15:07:49.694Z,84133.00
2018-11-12T15:12:53.775Z,84121.00
2018-11-12T15:17:57.603Z,84112.00
2018-11-12T15:23:01.421Z,84087.00
2018-11-12T15:28:05.381Z,84076.00
2018-11-12T15:33:09.234Z,84063.00
2018-11-12T15:38:13.298Z,84062.00
2018-11-12T15:43:17.519Z,84055.00
2018-11-12T15:48:21.269Z,84038.00
2018-11-12T15:53:25.158Z,84037.00
2018-11-12T15:58:28.972Z,84037.00
2018-11-12T16:03:32.918Z,84036.00
2018-11-12T16:08:36.782Z,84029.00
2018-11-12T16:13:40.996Z,84014.00
2018-11-12T16:18:45.046Z,83990.00
2018-11-12T16:23:49.107Z,83981.00
2018-11-12T16:28:53.000Z,83971.00
2018-11-12T16:33:57.168Z,83961.00
2018-11-12T16:39:01.027Z,83938.00
2018-11-12T16:44:04.877Z,83933.00
2018-11-12T16:49:08.764Z,83929.00
2018-11-12T16:54:12.837Z,83924.00
2018-11-12T16:59:16.741Z,83924.00
2018-11-12T17:04:20.596Z,83916.00
2018-11-12T17:09:24.429Z,83914.00
2018-11-12T17:14:28.516Z,83906.00
2018-11-12T17:19:32.414Z,83899.00
2018-11-12T17:24:36.246Z,83909.00
2018-11-12T17:29:40.226Z,83899.00
2018-11-12T17:34:44.065Z,83897.00
2018-11-12T17:39:48.182Z,83897.00
2018-11-12T17:44:52.094Z,83893.00
2018-11-12T17:49:55.921Z,83892.00
2018-11-12T17:54:59.775Z,83884.00
2018-11-12T18:00:04.094Z,83881.00
2018-11-12T18:05:08.726Z,83881.00
2018-11-12T18:10:14.323Z,83870.00
2018-11-12T18:15:19.374Z,83873.00
2018-11-12T18:20:24.893Z,83861.00
2018-11-12T18:25:28.837Z,83863.00
2018-11-12T18:30:33.293Z,83860.00
2018-11-12T18:35:36.950Z,83854.00
2018-11-12T18:40:41.163Z,83856.00
2018-11-12T18:45:45.007Z,83859.00
2018-11-12T18:50:49.122Z,83859.00
2018-11-12T18:55:53.121Z,83857.00
2018-11-12T19:00:57.004Z,83861.00
2018-11-12T19:06:00.898Z,83849.00
2018-11-12T19:11:04.893Z,83846.00
2018-11-12T19:16:08.960Z,83824.00
2018-11-12T19:21:12.813Z,83833.00
2018-11-12T19:26:16.858Z,83828.00
2018-11-12T19:31:20.692Z,83829.00
2018-11-12T19:36:24.521Z,83828.00
2018-11-12T19:41:28.623Z,83835.00
2018-11-12T19:46:33.102Z,83823.00
2018-11-12T19:51:37.548Z,83812.00
2018-11-12T19:56:41.380Z,83816.00
2018-11-12T20:01:45.509Z,83811.00
2018-11-12T20:06:49.410Z,83818.00
2018-11-12T20:11:53.345Z,83818.00
2018-11-12T20:16:57.407Z,83809.00
2018-11-12T20:22:01.277Z,83808.00
2018-11-12T20:27:05.326Z,83799.00
2018-11-12T20:32:09.153Z,83782.00
2018-11-12T20:37:13.734Z,83778.00
2018-11-12T20:42:17.846Z,83772.00
2018-11-12T20:47:22.052Z,83760.00
2018-11-12T20:52:26.183Z,83770.00
2018-11-12T20:57:30.261Z,83761.00
2018-11-12T21:02:34.109Z,83741.00
2018-11-12T21:07:38.058Z,83749.00
2018-11-12T21:12:41.922Z,83760.00
2018-11-12T21:17:45.808Z,83759.00
2018-11-12T21:22:50.015Z,83738.00
2018-11-12T21:27:53.849Z,83743.00
2018-11-12T21:32:57.736Z,83745.00
2018-11-12T21:38:01.622Z,83722.00
2018-11-12T21:43:05.541Z,83755.00
2018-11-12T21:48:09.326Z,83757.00
2018-11-12T21:53:13.206Z,83754.00
2018-11-12T21:58:17.111Z,83726.00
2018-11-12T22:03:21.215Z,83711.00
2018-11-12T22:08:25.070Z,83707.00
2018-11-12T22:13:28.934Z,83711.00
2018-11-12T22:18:32.810Z,83727.00
2018-11-12T22:23:36.951Z,83725.00
2018-11-12T22:28:40.800Z,83730.00
2018-11-12T22:33:44.747Z,83721.00
2018-11-12T22:38:48.601Z,83726.00
2018-11-12T22:43:52.699Z,83729.00
2018-11-12T22:48:56.544Z,83730.00
2018-11-12T22:54:00.591Z,83721.00
2018-11-12T22:59:04.430Z,83722.00
2018-11-12T23:04:08.302Z,83724.00
2018-11-12T23:09:18.685Z,83721.00
2018-11-12T23:14:22.551Z,83704.00
2018-11-12T23:19:26.478Z,83704.00
2018-11-12T23:24:30.311Z,83710.00
2018-11-12T23:29:34.445Z,83702.00
2018-11-12T23:34:38.331Z,83710.00
2018-11-12T23:39:42.214Z,83712.00
2018-11-12T23:44:46.078Z,83698.00
2018-11-12T23:49:50.271Z,83685.00
2018-11-12T23:54:54.117Z,83693.00
2018-11-12T23:59:57.990Z,83697.00
